Time;durP1;ratioP1;P1;durP2;ratioP2;P2;SDS_P1;SDS_P2;PMS_P1;PMS_P2;Temp;Humidity;BMP_temperature;BMP_pressure;BME280_temperature;BME280_humidity;BME280_pressure;Samples;Min_cycle;Max_cycle;Signal;HPM_P1;HPM_P2
2021/05/12 00:00:23;;;;;;;3.08;2.78;;;9.80;99.90;;;;;;4914259;29;20079;-80
2021/05/12 00:02:55;;;;;;;2.50;2.30;;;9.80;99.90;;;;;;4913472;29;20526;-80
2021/05/12 00:05:27;;;;;;;3.85;2.65;;;9.80;99.90;;;;;;4914697;29;20044;-80
2021/05/12 00:07:58;;;;;;;2.78;2.47;;;9.80;99.90;;;;;;4899394;29;20079;-80
2021/05/12 00:10:30;;;;;;;2.88;2.67;;;9.90;99.90;;;;;;4914531;29;20130;-80
2021/05/12 00:12:57;;;;;;;2.65;2.45;;;9.80;99.90;;;;;;4903645;29;20145;-80
2021/05/12 00:15:29;;;;;;;2.58;2.38;;;9.80;99.90;;;;;;4920804;29;20055;-79
2021/05/12 00:17:56;;;;;;;2.55;2.35;;;9.80;99.90;;;;;;4920870;29;20058;-80
2021/05/12 00:20:29;;;;;;;2.33;2.13;;;9.80;99.90;;;;;;4920799;29;20142;-80
2021/05/12 00:23:09;;;;;;;2.53;2.25;;;9.80;99.90;;;;;;4905592;29;20052;-80
2021/05/12 00:25:36;;;;;;;2.42;2.22;;;9.80;99.90;;;;;;4905043;29;20099;-80
2021/05/12 00:28:03;;;;;;;2.30;2.10;;;9.80;99.90;;;;;;4904872;29;20040;-80
2021/05/12 00:30:30;;;;;;;3.55;2.58;;;9.70;99.90;;;;;;4921070;29;20087;-80
2021/05/12 00:33:02;;;;;;;2.65;2.30;;;9.70;99.90;;;;;;4920530;29;20059;-80
2021/05/12 00:35:29;;;;;;;2.20;2.00;;;9.70;99.90;;;;;;4905459;29;20055;-80
2021/05/12 00:38:01;;;;;;;1.83;1.70;;;9.70;99.90;;;;;;4920442;29;20491;-80
2021/05/12 00:40:27;;;;;;;2.30;2.10;;;9.70;99.90;;;;;;4905328;29;20571;-80
2021/05/12 00:42:59;;;;;;;3.13;2.30;;;9.70;99.90;;;;;;4920865;29;20142;-80
2021/05/12 00:45:26;;;;;;;2.20;2.00;;;9.70;99.90;;;;;;4920780;29;20486;-80
2021/05/12 00:47:53;;;;;;;1.98;1.77;;;9.70;99.90;;;;;;4920358;29;20511;-80
2021/05/12 00:50:22;;;;;;;2.10;1.90;;;9.70;99.90;;;;;;4920524;29;20052;-80
2021/05/12 00:52:49;;;;;;;2.30;2.10;;;9.70;99.90;;;;;;4904991;29;20107;-80
2021/05/12 00:55:22;;;;;;;2.55;2.05;;;9.70;99.90;;;;;;4905495;29;20055;-80
2021/05/12 00:57:49;;;;;;;2.55;2.08;;;9.70;99.90;;;;;;4905459;29;20048;-80
2021/05/12 01:00:18;;;;;;;2.15;1.95;;;9.70;99.90;;;;;;4921664;29;20112;-80
2021/05/12 01:02:50;;;;;;;;;;;9.80;99.90;;;;;;4912388;29;20408;-80
2021/05/12 01:05:35;;;;;;;2.15;1.95;;;9.80;99.90;;;;;;4920743;29;19923;-81
2021/05/12 01:08:07;;;;;;;2.28;2.05;;;9.80;99.90;;;;;;4918423;29;20048;-80
2021/05/12 01:10:35;;;;;;;2.55;2.35;;;9.80;99.90;;;;;;4922361;29;20051;-80
2021/05/12 01:13:02;;;;;;;2.30;2.10;;;9.80;99.90;;;;;;4916383;29;20074;-80
2021/05/12 01:15:29;;;;;;;2.90;2.30;;;9.70;99.90;;;;;;4918913;29;20107;-80
2021/05/12 01:18:10;;;;;;;2.28;2.08;;;9.70;99.90;;;;;;4921227;29;20103;-80
2021/05/12 01:20:49;;;;;;;2.25;1.90;;;9.70;99.90;;;;;;4921003;29;20107;-80
2021/05/12 01:23:25;;;;;;;2.20;2.00;;;9.80;99.90;;;;;;4927262;29;20064;-80
2021/05/12 01:25:58;;;;;;;2.20;2.00;;;9.80;99.90;;;;;;4936075;29;20063;-81
2021/05/12 01:28:31;;;;;;;2.15;1.95;;;9.80;99.90;;;;;;4934959;29;20051;-80
2021/05/12 01:31:10;;;;;;;2.10;1.83;;;9.80;99.90;;;;;;4916297;29;20142;-80
2021/05/12 01:33:38;;;;;;;1.88;1.77;;;9.80;99.90;;;;;;4932007;29;20072;-80
2021/05/12 01:36:12;;;;;;;2.78;1.80;;;9.80;99.90;;;;;;4934353;29;20059;-80
2021/05/12 01:38:41;;;;;;;1.92;1.73;;;9.80;99.90;;;;;;4933879;29;20055;-80
2021/05/12 01:41:15;;;;;;;2.85;1.60;;;9.80;99.90;;;;;;4908833;29;20583;-80
2021/05/12 01:43:42;;;;;;;1.83;1.60;;;9.80;99.90;;;;;;4927997;29;20055;-80
2021/05/12 01:46:14;;;;;;;1.75;1.52;;;9.80;99.90;;;;;;4909438;29;20068;-80
2021/05/12 01:48:46;;;;;;;1.50;1.40;;;9.70;99.90;;;;;;4903080;29;20396;-80
2021/05/12 01:51:14;;;;;;;1.70;1.25;;;9.70;99.90;;;;;;4917130;29;20048;-80
2021/05/12 01:53:42;;;;;;;1.50;1.20;;;9.70;99.90;;;;;;4901664;29;20064;-80
2021/05/12 01:56:10;;;;;;;1.77;1.25;;;9.70;99.90;;;;;;4904517;29;20090;-80
2021/05/12 01:58:37;;;;;;;1.95;1.73;;;9.70;99.90;;;;;;4915580;29;20052;-80
2021/05/12 02:01:09;;;;;;;1.42;1.30;;;9.70;99.90;;;;;;4918563;29;20459;-80
2021/05/12 02:03:36;;;;;;;1.50;1.20;;;9.70;99.90;;;;;;4934509;29;20056;-80
2021/05/12 02:06:03;;;;;;;1.25;1.15;;;9.70;99.90;;;;;;4934702;29;20048;-80
2021/05/12 02:08:30;;;;;;;1.40;1.20;;;9.80;99.90;;;;;;4933633;29;20044;-80
2021/05/12 02:11:04;;;;;;;1.55;1.20;;;9.70;99.90;;;;;;4934296;29;20068;-80
2021/05/12 02:13:31;;;;;;;1.10;1.00;;;9.70;99.90;;;;;;4918158;29;20056;-80
2021/05/12 02:16:01;;;;;;;1.52;1.05;;;9.80;99.90;;;;;;4933789;29;20084;-80
2021/05/12 02:18:28;;;;;;;1.15;0.82;;;9.80;99.90;;;;;;4915910;29;20056;-80
2021/05/12 02:20:55;;;;;;;1.13;1.02;;;9.80;99.90;;;;;;4916662;29;20075;-80
2021/05/12 02:23:24;;;;;;;0.90;0.80;;;9.70;99.90;;;;;;4917187;29;20428;-80
2021/05/12 02:25:57;;;;;;;2.28;1.08;;;9.80;99.90;;;;;;4934066;29;20076;-80
2021/05/12 02:28:24;;;;;;;0.88;0.70;;;9.70;99.90;;;;;;4933617;29;20052;-80
2021/05/12 02:30:51;;;;;;;0.65;0.60;;;9.70;99.90;;;;;;4933952;29;20048;-80
2021/05/12 02:33:18;;;;;;;1.30;1.08;;;9.70;99.90;;;;;;4929529;29;20048;-80
2021/05/12 02:35:45;;;;;;;1.33;0.95;;;9.70;99.90;;;;;;4906118;29;20071;-80
2021/05/12 02:38:12;;;;;;;1.42;0.90;;;9.70;99.90;;;;;;4917594;29;20052;-80
2021/05/12 02:40:39;;;;;;;1.20;1.10;;;9.80;99.90;;;;;;4932862;29;20071;-80
2021/05/12 02:43:11;;;;;;;0.80;0.80;;;9.70;99.90;;;;;;4934055;29;20087;-80
2021/05/12 02:45:38;;;;;;;1.30;1.08;;;9.70;99.90;;;;;;4917403;29;20048;-80
2021/05/12 02:48:10;;;;;;;0.98;0.90;;;9.70;99.90;;;;;;4932170;29;20074;-80
2021/05/12 02:50:42;;;;;;;2.45;1.10;;;9.70;99.90;;;;;;4932581;29;20489;-80
2021/05/12 02:53:11;;;;;;;1.17;1.08;;;9.80;99.90;;;;;;4916208;29;20508;-80
2021/05/12 02:55:38;;;;;;;1.95;1.15;;;9.80;99.90;;;;;;4917225;29;20056;-81
2021/05/12 02:58:10;;;;;;;1.10;1.00;;;9.80;99.90;;;;;;4917823;29;20068;-80
2021/05/12 03:00:43;;;;;;;1.40;1.13;;;9.80;99.90;;;;;;4918461;29;20055;-81
2021/05/12 03:03:10;;;;;;;1.77;1.20;;;9.80;99.90;;;;;;4915955;29;20055;-80
2021/05/12 03:05:39;;;;;;;1.45;1.30;;;9.70;99.90;;;;;;4915149;29;20044;-81
2021/05/12 03:08:06;;;;;;;1.10;1.00;;;9.70;99.90;;;;;;4916404;29;20045;-80
2021/05/12 03:10:40;;;;;;;1.40;1.25;;;9.80;99.90;;;;;;4916664;29;20047;-80
2021/05/12 03:13:11;;;;;;;1.70;1.40;;;9.80;99.90;;;;;;4932180;29;20123;-81
2021/05/12 03:15:39;;;;;;;1.67;1.48;;;9.80;99.90;;;;;;4932658;29;20047;-80
2021/05/12 03:18:07;;;;;;;2.47;1.40;;;9.80;99.90;;;;;;4916784;29;20090;-80
2021/05/12 03:20:38;;;;;;;1.57;1.47;;;9.80;99.90;;;;;;4933022;29;20610;-80
2021/05/12 03:23:06;;;;;;;2.00;1.45;;;9.80;99.90;;;;;;4909657;29;20044;-83
2021/05/12 03:25:35;;;;;;;1.30;1.20;;;9.80;99.90;;;;;;4933838;29;20044;-83
2021/05/12 03:28:07;;;;;;;1.58;1.30;;;9.80;99.90;;;;;;4919027;29;20119;-83
2021/05/12 03:30:39;;;;;;;1.80;1.23;;;9.80;99.90;;;;;;4919993;29;20079;-83
2021/05/12 03:33:08;;;;;;;1.30;1.10;;;9.80;99.90;;;;;;4919102;29;20036;-83
2021/05/12 03:35:39;;;;;;;1.40;1.30;;;9.80;99.90;;;;;;4934162;29;20059;-83
2021/05/12 03:38:12;;;;;;;2.15;1.55;;;9.80;99.90;;;;;;4919819;29;20076;-83
2021/05/12 03:40:44;;;;;;;1.17;1.07;;;9.80;99.90;;;;;;4934101;29;20059;-81
2021/05/12 03:43:11;;;;;;;1.15;1.00;;;9.80;99.90;;;;;;4918682;29;20044;-83
2021/05/12 03:45:38;;;;;;;1.20;1.00;;;9.80;99.90;;;;;;4919115;29;20116;-83
2021/05/12 03:48:07;;;;;;;1.20;1.10;;;9.80;99.90;;;;;;4933126;29;20108;-83
2021/05/12 03:50:34;;;;;;;1.30;1.20;;;9.80;99.90;;;;;;4934264;29;20068;-83
2021/05/12 03:53:02;;;;;;;1.50;1.13;;;9.80;99.90;;;;;;4918031;29;20075;-83
2021/05/12 03:55:29;;;;;;;1.58;1.10;;;9.90;99.90;;;;;;4933764;29;20045;-83
2021/05/12 03:57:56;;;;;;;1.05;0.95;;;9.90;99.90;;;;;;4918507;29;20056;-83
2021/05/12 04:00:24;;;;;;;1.42;1.33;;;9.90;99.90;;;;;;4934273;29;20036;-83
2021/05/12 04:02:51;;;;;;;2.33;1.35;;;9.90;99.90;;;;;;4918469;29;20139;-82
2021/05/12 04:05:19;;;;;;;2.30;1.42;;;9.90;99.90;;;;;;4934450;29;20072;-83
2021/05/12 04:07:46;;;;;;;1.88;1.50;;;9.90;99.90;;;;;;4918303;29;20051;-83
2021/05/12 04:10:13;;;;;;;2.65;1.85;;;9.90;99.90;;;;;;4932658;29;20108;-82
2021/05/12 04:12:41;;;;;;;2.63;2.10;;;9.90;99.90;;;;;;4931083;29;20044;-82
2021/05/12 04:15:13;;;;;;;2.17;1.70;;;9.90;99.90;;;;;;4906133;29;20052;-82
2021/05/12 04:17:40;;;;;;;3.35;1.67;;;9.90;99.90;;;;;;4903665;29;20475;-81
2021/05/12 04:20:12;;;;;;;2.38;1.90;;;9.90;99.90;;;;;;4924944;29;20055;-82
2021/05/12 04:22:40;;;;;;;2.67;1.92;;;9.90;99.90;;;;;;4923462;29;20044;-83
2021/05/12 04:25:12;;;;;;;2.35;2.00;;;9.90;99.90;;;;;;4914715;29;20040;-82
2021/05/12 04:27:40;;;;;;;2.67;2.00;;;9.90;99.90;;;;;;4915090;29;20048;-83
2021/05/12 04:30:13;;;;;;;2.70;2.50;;;9.90;99.90;;;;;;4915401;29;20054;-82
2021/05/12 04:32:41;;;;;;;2.70;2.50;;;9.90;99.90;;;;;;4916253;29;20054;-82
2021/05/12 04:35:19;;;;;;;3.55;2.60;;;9.90;99.90;;;;;;4917093;29;20040;-83
2021/05/12 04:37:47;;;;;;;4.05;2.70;;;9.90;99.90;;;;;;4917452;29;20431;-82
2021/05/12 04:40:14;;;;;;;2.55;2.35;;;9.90;99.90;;;;;;4917433;29;20048;-82
2021/05/12 04:42:41;;;;;;;2.92;2.63;;;9.90;99.90;;;;;;4931890;29;20063;-82
2021/05/12 04:45:10;;;;;;;4.20;2.85;;;9.90;99.90;;;;;;4916998;29;20056;-84
2021/05/12 04:47:37;;;;;;;3.85;2.60;;;9.90;99.90;;;;;;4916850;29;20056;-82
2021/05/12 04:50:07;;;;;;;3.40;3.10;;;10.00;99.90;;;;;;4914418;29;20092;-82
2021/05/12 04:52:39;;;;;;;3.47;2.67;;;9.90;99.90;;;;;;4927612;29;20080;-82
2021/05/12 04:55:11;;;;;;;3.65;2.80;;;9.90;99.90;;;;;;4917596;29;20054;-82
2021/05/12 04:57:38;;;;;;;5.22;2.95;;;9.90;99.90;;;;;;4932860;29;20040;-83
2021/05/12 05:00:06;;;;;;;3.30;3.00;;;9.90;99.90;;;;;;4919941;29;20051;-83
2021/05/12 05:02:34;;;;;;;4.05;2.83;;;9.90;99.90;;;;;;4921780;29;20088;-83
2021/05/12 05:05:01;;;;;;;2.97;2.42;;;9.90;99.90;;;;;;4920914;29;20048;-83
2021/05/12 05:07:29;;;;;;;3.78;2.50;;;9.90;99.90;;;;;;4920218;29;20063;-84
2021/05/12 05:10:01;;;;;;;4.47;2.60;;;9.90;99.90;;;;;;4920223;29;20054;-82
2021/05/12 05:12:29;;;;;;;2.65;2.20;;;9.90;99.90;;;;;;4920297;29;20052;-83
2021/05/12 05:15:01;;;;;;;2.72;2.47;;;9.90;99.90;;;;;;4920654;29;20044;-82
2021/05/12 05:17:29;;;;;;;4.05;2.35;;;9.90;99.90;;;;;;4935236;29;20048;-82
2021/05/12 05:19:58;;;;;;;4.05;2.60;;;9.90;99.90;;;;;;4936020;29;20059;-83
2021/05/12 05:22:28;;;;;;;3.42;2.42;;;9.90;99.90;;;;;;4936816;29;20055;-82
2021/05/12 05:24:57;;;;;;;2.83;2.17;;;9.90;99.90;;;;;;4920085;29;20048;-81
2021/05/12 05:27:24;;;;;;;5.10;2.63;;;9.90;99.90;;;;;;4937365;29;20067;-81
2021/05/12 05:29:52;;;;;;;2.78;2.20;;;9.90;99.90;;;;;;4936953;29;20111;-85
2021/05/12 05:32:37;;;;;;;3.33;2.45;;;9.90;99.90;;;;;;4917619;29;20079;-82
2021/05/12 05:35:23;;;;;;;3.10;2.22;;;9.90;99.90;;;;;;4915758;29;20068;-82
2021/05/12 05:38:09;;;;;;;2.97;2.35;;;9.90;99.90;;;;;;4913598;29;20090;-84
2021/05/12 05:40:59;;;;;;;3.90;2.25;;;9.90;99.90;;;;;;4913883;29;20060;-83
2021/05/12 05:43:50;;;;;;;3.88;2.20;;;9.90;99.90;;;;;;4915914;29;20108;-82
2021/05/12 05:46:35;;;;;;;3.97;2.97;;;9.90;99.90;;;;;;4916933;29;20052;-81
2021/05/12 05:49:21;;;;;;;4.07;2.42;;;9.90;99.90;;;;;;4916855;29;20069;-83
2021/05/12 05:52:12;;;;;;;3.28;2.58;;;9.90;99.90;;;;;;4935024;29;20056;-83
2021/05/12 05:54:58;;;;;;;3.78;2.67;;;9.90;99.90;;;;;;4923111;29;20062;-82
2021/05/12 05:57:44;;;;;;;5.38;2.28;;;9.80;99.90;;;;;;4930242;29;20067;-82
2021/05/12 06:00:29;;;;;;;9.15;4.00;;;9.80;99.90;;;;;;4910014;29;20098;-81
2021/05/12 06:02:56;;;;;;;3.83;2.80;;;9.70;99.90;;;;;;4901256;29;20045;-83
2021/05/12 06:05:49;;;;;;;5.95;2.83;;;9.70;99.90;;;;;;4916907;29;20059;-83
2021/05/12 06:08:34;;;;;;;4.97;2.72;;;9.80;99.90;;;;;;4921474;29;20125;-81
2021/05/12 06:11:35;;;;;;;6.38;3.80;;;9.80;99.90;;;;;;4883151;29;20069;-83
2021/05/12 06:14:31;;;;;;;3.60;2.80;;;9.80;99.90;;;;;;4850507;29;20062;-83
2021/05/12 06:17:17;;;;;;;3.92;2.53;;;9.90;99.90;;;;;;4917279;29;20054;-83
2021/05/12 06:20:02;;;;;;;3.97;2.53;;;9.80;99.90;;;;;;4915446;29;20073;-82
2021/05/12 06:22:48;;;;;;;5.05;3.05;;;9.90;99.90;;;;;;4917918;29;20085;-82
2021/05/12 06:25:38;;;;;;;4.50;3.17;;;9.90;99.90;;;;;;4914698;29;20136;-82
2021/05/12 06:28:29;;;;;;;4.78;2.67;;;9.90;99.90;;;;;;4903922;29;20081;-82
2021/05/12 06:31:14;;;;;;;7.28;2.97;;;9.90;99.90;;;;;;4907075;29;20580;-82
2021/05/12 06:34:05;;;;;;;3.78;2.70;;;9.80;99.90;;;;;;4906149;29;20056;-83
2021/05/12 06:36:50;;;;;;;4.88;2.78;;;9.90;99.90;;;;;;4904759;29;20093;-82
2021/05/12 06:39:40;;;;;;;5.22;3.25;;;9.80;99.90;;;;;;4906664;29;20056;-82
2021/05/12 06:42:12;;;;;;;4.10;3.05;;;9.80;99.90;;;;;;4906200;29;20044;-81
2021/05/12 06:49:00;;;;;;;5.60;3.20;;;9.80;99.90;;;;;;4908400;29;20069;-83
2021/05/12 06:51:32;;;;;;;6.13;3.47;;;9.90;99.90;;;;;;4890512;29;20132;-83
2021/05/12 06:53:58;;;;;;;6.13;3.60;;;9.90;99.90;;;;;;4904726;29;20037;-81
2021/05/12 07:00:52;;;;;;;5.63;3.83;;;9.90;99.90;;;;;;4911187;29;20048;-83
2021/05/12 07:03:22;;;;;;;4.82;3.60;;;9.90;99.90;;;;;;4889423;29;20059;-83
2021/05/12 07:05:51;;;;;;;6.00;3.80;;;9.90;99.90;;;;;;4890324;29;20052;-82
2021/05/12 07:08:20;;;;;;;4.93;3.97;;;9.90;99.90;;;;;;4906521;29;20043;-82
2021/05/12 07:15:27;;;;;;;6.90;3.83;;;10.00;99.90;;;;;;4912610;29;20464;-83
2021/05/12 07:17:55;;;;;;;5.60;4.10;;;10.00;99.90;;;;;;4888358;29;20068;-76
2021/05/12 07:20:26;;;;;;;5.80;4.25;;;10.00;99.90;;;;;;4893852;29;20127;-77
2021/05/12 07:23:02;;;;;;;6.00;4.03;;;9.90;99.90;;;;;;4895175;29;20094;-77
2021/05/12 07:25:29;;;;;;;5.53;4.60;;;9.90;99.90;;;;;;4895374;29;20079;-77
2021/05/12 07:27:56;;;;;;;6.47;4.68;;;9.90;99.90;;;;;;4895500;29;20071;-77
2021/05/12 07:30:23;;;;;;;6.75;4.55;;;9.90;99.90;;;;;;4895086;29;20090;-77
2021/05/12 07:32:50;;;;;;;6.18;4.78;;;10.00;99.90;;;;;;4895275;29;20151;-78
2021/05/12 07:35:18;;;;;;;4.65;4.20;;;10.00;99.90;;;;;;4896219;29;20123;-78
2021/05/12 07:37:50;;;;;;;5.35;3.92;;;10.00;99.90;;;;;;4895538;29;20042;-77
2021/05/12 07:40:21;;;;;;;5.20;4.22;;;10.00;99.90;;;;;;4880557;29;20052;-78
2021/05/12 07:42:49;;;;;;;7.22;4.45;;;10.00;99.90;;;;;;4896971;29;20068;-77
2021/05/12 07:45:16;;;;;;;6.13;4.35;;;10.00;99.90;;;;;;4904530;29;20478;-77
2021/05/12 07:47:48;;;;;;;6.07;4.72;;;10.00;99.90;;;;;;4898284;29;20144;-78
2021/05/12 07:50:20;;;;;;;6.05;4.70;;;10.00;99.90;;;;;;4914993;29;20062;-78
2021/05/12 07:52:52;;;;;;;8.38;4.97;;;10.10;99.90;;;;;;4914566;29;20050;-77
2021/05/12 07:55:24;;;;;;;8.05;5.28;;;10.10;99.90;;;;;;4913708;29;20568;-77
2021/05/12 07:57:56;;;;;;;6.55;5.07;;;10.10;99.90;;;;;;4898702;29;20147;-78
2021/05/12 08:00:31;;;;;;;6.95;5.20;;;10.10;99.90;;;;;;4898394;29;20052;-77
2021/05/12 08:02:58;;;;;;;7.63;4.70;;;10.10;99.90;;;;;;4898058;29;20104;-77
2021/05/12 08:05:30;;;;;;;8.30;4.90;;;10.20;99.90;;;;;;4913590;29;20040;-77
2021/05/12 08:08:02;;;;;;;9.70;5.20;;;10.20;99.90;;;;;;4913353;29;20134;-78
2021/05/12 08:10:34;;;;;;;5.95;5.07;;;10.20;99.90;;;;;;4896212;29;20520;-78
2021/05/12 08:13:00;;;;;;;6.85;4.60;;;10.30;99.90;;;;;;4913167;29;20147;-77
2021/05/12 08:15:27;;;;;;;6.05;4.75;;;10.30;99.90;;;;;;4898293;29;20048;-78
2021/05/12 08:17:54;;;;;;;5.35;4.60;;;10.30;99.90;;;;;;4898301;29;20143;-78
2021/05/12 08:20:21;;;;;;;7.60;5.03;;;10.30;99.90;;;;;;4912152;29;20518;-77
2021/05/12 08:22:48;;;;;;;4.90;4.35;;;10.30;99.90;;;;;;4913816;29;20155;-78
2021/05/12 08:25:19;;;;;;;7.10;5.50;;;10.30;99.90;;;;;;4896901;29;20604;-77
2021/05/12 08:27:54;;;;;;;6.57;5.15;;;10.30;99.90;;;;;;4913308;29;20044;-77
2021/05/12 08:30:23;;;;;;;8.60;4.55;;;10.40;99.90;;;;;;4914556;29;20044;-79
2021/05/12 08:32:56;;;;;;;5.20;4.63;;;10.40;99.90;;;;;;4899466;29;20310;-77
2021/05/12 08:35:23;;;;;;;5.63;4.80;;;10.40;99.90;;;;;;4918313;29;20040;-78
2021/05/12 08:37:51;;;;;;;4.60;3.85;;;10.30;99.90;;;;;;4911732;29;20055;-77
2021/05/12 08:40:20;;;;;;;6.70;4.13;;;10.40;99.90;;;;;;4888172;29;20075;-77
2021/05/12 08:42:54;;;;;;;4.43;4.03;;;10.40;99.90;;;;;;4896294;29;20153;-77
2021/05/12 08:45:21;;;;;;;4.63;3.75;;;10.40;99.90;;;;;;4915910;29;20044;-78
2021/05/12 08:47:54;;;;;;;5.15;3.92;;;10.40;99.90;;;;;;4915288;29;20118;-77
2021/05/12 08:50:21;;;;;;;4.68;3.85;;;10.50;99.90;;;;;;4911928;29;20078;-77
2021/05/12 08:52:53;;;;;;;5.95;4.30;;;10.60;99.90;;;;;;4891510;29;20044;-77
2021/05/12 08:55:26;;;;;;;4.55;3.38;;;10.60;99.90;;;;;;4901335;29;20052;-78
2021/05/12 08:57:53;;;;;;;3.85;3.15;;;10.60;99.90;;;;;;4916128;29;20142;-77
2021/05/12 09:00:25;;;;;;;5.15;3.97;;;10.70;99.90;;;;;;4898078;29;20097;-77
2021/05/12 09:02:52;;;;;;;4.25;3.72;;;10.70;99.90;;;;;;4897139;29;20091;-77
2021/05/12 09:05:20;;;;;;;3.90;3.50;;;10.80;99.90;;;;;;4897392;29;20495;-77
2021/05/12 09:07:52;;;;;;;3.55;3.25;;;10.80;99.90;;;;;;4882620;29;20041;-77
2021/05/12 09:10:18;;;;;;;5.50;3.55;;;10.80;99.90;;;;;;4896935;29;20076;-77
2021/05/12 09:12:56;;;;;;;5.30;3.58;;;10.80;99.90;;;;;;4882030;29;20136;-79
2021/05/12 09:15:26;;;;;;;4.95;3.60;;;10.90;99.90;;;;;;4876471;29;20054;-77
2021/05/12 09:18:04;;;;;;;5.30;4.15;;;10.90;99.90;;;;;;4897398;29;20048;-77
2021/05/12 09:20:37;;;;;;;5.03;3.88;;;10.90;99.90;;;;;;4897410;29;20461;-78
2021/05/12 09:23:16;;;;;;;4.72;4.15;;;10.90;99.90;;;;;;4912451;29;20112;-78
2021/05/12 09:25:52;;;;;;;7.10;4.72;;;10.90;99.90;;;;;;4900220;29;20044;-77
2021/05/12 09:28:21;;;;;;;5.65;5.03;;;11.00;99.90;;;;;;4899916;29;20139;-77
2021/05/12 09:31:02;;;;;;;4.00;3.60;;;11.00;99.90;;;;;;4900269;29;20054;-77
2021/05/12 09:33:30;;;;;;;5.28;4.03;;;11.00;99.90;;;;;;4917050;29;20071;-77
2021/05/12 09:36:02;;;;;;;;;;;11.00;99.90;;;;;;4916389;29;20044;-80
2021/05/12 09:38:31;;;;;;;7.28;4.13;;;11.00;99.90;;;;;;4915863;29;20034;-78
2021/05/12 09:41:11;;;;;;;4.30;3.75;;;11.00;99.90;;;;;;4915719;29;20048;-78
2021/05/12 09:43:46;;;;;;;4.93;3.10;;;10.90;99.90;;;;;;4915805;29;20079;-78
2021/05/12 09:46:24;;;;;;;5.25;3.42;;;10.80;99.90;;;;;;4915584;29;20495;-77
2021/05/12 09:48:59;;;;;;;5.00;4.40;;;10.70;99.90;;;;;;4900822;29;20048;-77
2021/05/12 09:51:27;;;;;;;4.97;3.35;;;10.70;99.90;;;;;;4916161;29;20418;-77
2021/05/12 09:54:19;;;;;;;5.43;4.85;;;10.60;99.90;;;;;;4917115;29;20041;-77
2021/05/12 09:56:49;;;;;;;4.97;4.47;;;10.50;99.90;;;;;;4916037;29;20067;-80
2021/05/12 09:59:17;;;;;;;6.15;4.88;;;10.50;99.90;;;;;;4900183;29;20079;-77
2021/05/12 10:01:57;;;;;;;6.43;5.03;;;10.50;99.90;;;;;;4916835;29;20062;-77
2021/05/12 10:04:39;;;;;;;5.55;4.75;;;10.50;99.90;;;;;;4900278;29;20084;-79
2021/05/12 10:07:26;;;;;;;6.35;4.47;;;10.60;99.90;;;;;;4914622;29;20123;-77
2021/05/12 10:09:58;;;;;;;6.13;4.53;;;10.50;99.90;;;;;;4915340;29;20036;-77
2021/05/12 10:12:30;;;;;;;6.18;4.68;;;10.60;99.90;;;;;;4913393;29;20040;-77
2021/05/12 10:14:58;;;;;;;5.63;4.22;;;10.60;99.90;;;;;;4914728;29;20590;-78
2021/05/12 10:17:31;;;;;;;5.28;4.78;;;10.50;99.90;;;;;;4900582;29;20050;-77
2021/05/12 10:19:58;;;;;;;9.75;7.07;;;10.50;99.90;;;;;;4915440;29;20094;-77
2021/05/12 10:22:30;;;;;;;5.45;4.82;;;10.50;99.90;;;;;;4900408;29;20051;-77
2021/05/12 10:25:03;;;;;;;6.32;5.18;;;10.50;99.90;;;;;;4900438;29;20127;-77
2021/05/12 10:27:31;;;;;;;9.38;5.05;;;10.50;99.90;;;;;;4915285;29;20063;-77
2021/05/12 10:30:04;;;;;;;5.47;4.90;;;10.50;99.90;;;;;;4897834;29;20040;-77
2021/05/12 10:32:37;;;;;;;5.43;4.50;;;10.50;99.90;;;;;;4899619;29;20040;-77
2021/05/12 10:35:12;;;;;;;9.10;5.03;;;10.50;99.90;;;;;;4899424;29;20624;-77
2021/05/12 10:37:46;;;;;;;9.07;6.57;;;10.50;99.90;;;;;;4915636;29;20051;-77
2021/05/12 10:40:32;;;;;;;7.38;5.57;;;10.50;99.90;;;;;;4899821;29;20130;-76
2021/05/12 10:45:41;;;;;;;7.30;5.32;;;10.60;99.90;;;;;;4919199;29;20108;-80
2021/05/12 10:48:26;;;;;;;6.00;4.78;;;10.60;99.90;;;;;;4929454;29;20040;-79
2021/05/12 10:51:03;;;;;;;7.47;5.15;;;10.60;99.90;;;;;;4914932;29;20044;-79
2021/05/12 10:53:32;;;;;;;8.20;5.78;;;10.60;99.90;;;;;;4924754;29;20040;-79
2021/05/12 10:56:05;;;;;;;7.65;4.93;;;10.50;99.90;;;;;;4915292;29;20049;-79
2021/05/12 10:58:46;;;;;;;7.35;6.07;;;10.50;99.90;;;;;;4926671;29;20052;-79
2021/05/12 11:01:18;;;;;;;6.35;4.90;;;10.60;99.90;;;;;;4907790;29;20131;-78
2021/05/12 11:03:51;;;;;;;7.15;4.90;;;10.50;99.90;;;;;;4944462;29;20071;-78
2021/05/12 11:06:25;;;;;;;6.35;5.72;;;10.50;99.90;;;;;;4941037;29;20059;-78
2021/05/12 11:09:09;;;;;;;7.35;5.30;;;10.60;99.90;;;;;;4922654;29;20071;-78
2021/05/12 11:11:44;;;;;;;6.63;5.75;;;10.60;99.90;;;;;;4886239;29;20044;-78
2021/05/12 11:14:22;;;;;;;7.57;5.90;;;10.70;99.90;;;;;;4907286;29;20108;-78
2021/05/12 11:17:15;;;;;;;8.32;5.90;;;10.70;99.90;;;;;;4895123;29;20516;-78
2021/05/12 11:19:47;;;;;;;8.95;5.93;;;10.70;99.90;;;;;;4889500;29;20056;-78
2021/05/12 11:25:13;;;;;;;8.23;7.03;;;10.80;99.90;;;;;;4908777;29;20139;-78
2021/05/12 11:28:17;;;;;;;9.18;7.28;;;10.80;99.90;;;;;;4894502;29;20044;-78
2021/05/12 11:33:39;;;;;;;7.82;7.03;;;11.00;99.90;;;;;;4914192;29;20047;-76
2021/05/12 11:36:16;;;;;;;8.85;6.63;;;10.90;99.90;;;;;;4910996;29;20067;-75
2021/05/12 11:38:44;;;;;;;7.63;5.53;;;10.90;99.90;;;;;;4912473;29;20065;-76
2021/05/12 11:41:13;;;;;;;10.57;7.22;;;10.90;99.90;;;;;;4898282;29;20503;-77
2021/05/12 11:43:56;;;;;;;11.77;7.22;;;10.80;99.90;;;;;;4898303;29;20487;-76
2021/05/12 11:46:33;;;;;;;9.18;6.90;;;10.80;99.90;;;;;;4895912;29;20045;-76
2021/05/12 11:49:09;;;;;;;8.93;6.75;;;10.80;99.90;;;;;;4894656;29;20483;-78
2021/05/12 11:51:42;;;;;;;9.18;7.65;;;10.80;99.90;;;;;;4894291;29;20044;-76
2021/05/12 11:54:16;;;;;;;8.93;8.03;;;10.80;99.90;;;;;;4893968;29;20064;-78
2021/05/12 11:56:53;;;;;;;10.38;7.35;;;10.90;99.90;;;;;;4915375;29;20309;-77
2021/05/12 11:59:24;;;;;;;9.40;7.05;;;10.90;99.90;;;;;;4921036;29;20108;-76
2021/05/12 12:02:11;;;;;;;8.57;6.55;;;10.80;99.90;;;;;;4912170;29;20048;-76
2021/05/12 12:04:59;;;;;;;9.63;6.47;;;10.80;99.90;;;;;;4901888;29;20427;-78
2021/05/12 12:07:25;;;;;;;9.90;6.78;;;10.80;99.90;;;;;;4912128;29;20091;-78
2021/05/12 12:10:02;;;;;;;10.48;7.28;;;10.70;99.90;;;;;;4914598;29;20048;-76
2021/05/12 12:12:35;;;;;;;14.35;8.35;;;10.70;99.90;;;;;;4898110;29;20139;-78
2021/05/12 12:15:08;;;;;;;;;;;10.70;99.90;;;;;;4913418;29;20046;-76
2021/05/12 12:17:35;;;;;;;10.75;7.07;;;10.70;99.90;;;;;;4897510;29;20780;-76
2021/05/12 12:20:08;;;;;;;12.05;7.63;;;10.80;99.90;;;;;;4913254;29;20479;-77
2021/05/12 12:22:48;;;;;;;12.93;8.07;;;10.80;99.90;;;;;;4913963;29;20044;-76
2021/05/12 12:25:17;;;;;;;17.20;12.40;;;10.80;99.90;;;;;;4897192;29;20151;-77
2021/05/12 12:27:49;;;;;;;8.80;7.35;;;10.80;99.90;;;;;;4898167;29;20048;-77
2021/05/12 12:30:20;;;;;;;12.48;10.52;;;10.80;99.90;;;;;;4898211;29;20128;-76
2021/05/12 12:32:52;;;;;;;11.18;8.23;;;10.80;99.90;;;;;;4913065;29;20167;-76
2021/05/12 12:35:24;;;;;;;15.77;9.68;;;10.80;99.90;;;;;;4932242;29;20048;-76
2021/05/12 12:37:56;;;;;;;10.45;8.95;;;10.90;99.90;;;;;;4905769;29;20119;-76
2021/05/12 12:40:27;;;;;;;13.48;9.63;;;10.90;99.90;;;;;;4881140;29;20257;-75
2021/05/12 12:42:54;;;;;;;28.30;20.70;;;11.00;99.90;;;;;;4894432;29;20407;-75
2021/05/12 12:45:35;;;;;;;16.83;9.38;;;11.00;99.90;;;;;;4879122;29;20051;-76
2021/05/12 12:48:08;;;;;;;17.13;11.18;;;11.10;99.90;;;;;;4894732;29;20051;-75
2021/05/12 12:50:41;;;;;;;12.10;10.23;;;11.00;99.90;;;;;;4894879;29;20119;-75
2021/05/12 12:53:10;;;;;;;17.38;10.90;;;11.00;99.90;;;;;;4894663;29;20139;-75
2021/05/12 12:55:37;;;;;;;11.00;8.38;;;11.00;99.90;;;;;;4879031;29;20084;-75
2021/05/12 12:58:11;;;;;;;19.20;12.38;;;10.90;99.90;;;;;;4895698;29;20481;-76
2021/05/12 13:00:45;;;;;;;28.35;16.60;;;11.00;99.90;;;;;;4895173;29;20119;-76
2021/05/12 13:03:20;;;;;;;16.23;10.05;;;11.10;99.90;;;;;;4879206;29;20040;-76
2021/05/12 13:05:55;;;;;;;24.42;16.58;;;11.10;99.90;;;;;;4895745;29;20083;-76
2021/05/12 13:08:31;;;;;;;30.08;18.05;;;11.20;99.90;;;;;;4893717;29;20048;-77
2021/05/12 13:11:11;;;;;;;17.05;11.75;;;11.30;99.90;;;;;;4895201;29;20060;-77
2021/05/12 13:13:49;;;;;;;27.02;17.52;;;11.30;99.90;;;;;;4894349;29;20064;-76
2021/05/12 13:16:23;;;;;;;31.70;18.75;;;11.20;99.90;;;;;;4894368;29;20048;-77
2021/05/12 13:19:01;;;;;;;32.05;16.15;;;11.20;99.90;;;;;;4895345;29;20427;-76
2021/05/12 13:21:37;;;;;;;44.10;20.27;;;11.30;99.90;;;;;;4898868;29;20059;-76
2021/05/12 13:24:09;;;;;;;14.88;9.38;;;11.30;99.90;;;;;;4897306;29;20490;-77
2021/05/12 13:26:44;;;;;;;18.73;11.30;;;11.30;99.90;;;;;;4897968;29;20535;-77
2021/05/12 13:29:16;;;;;;;14.63;9.30;;;11.30;99.90;;;;;;4898775;29;20032;-77
2021/05/12 13:31:50;;;;;;;15.13;8.40;;;11.30;99.90;;;;;;4898949;29;20490;-76
2021/05/12 13:34:24;;;;;;;14.50;8.82;;;11.20;99.90;;;;;;4898776;29;20464;-77
2021/05/12 13:36:57;;;;;;;14.13;9.32;;;11.20;99.90;;;;;;4901593;29;20048;-77
2021/05/12 13:39:35;;;;;;;11.38;7.90;;;11.20;99.90;;;;;;4920100;29;20044;-77